In Rescue
 
January 28, 2020 11:28 PM EST
Weather Information
Wind Direction
  ---
Wind Speed
  00 kt (0 mph)
Wind Gust
  00 kt (0 mph)
Altimeter
30.12 in
Visibility
10 SM
Temperature
00° C
32° F
Dewpoint
00° C
32° F
Humidity
100%
Sky Condition
Overcast @ 2,000 ft
MVFR

METAR KIMS 290428Z AUTO 00000KT 10SM OVC020 00/00 A3012 RMK AO1

FAA Disclaimer: The data displayed is for advisory purposes only and is not to be used for flight planning or operations.